Time;durP1;ratioP1;P1;durP2;ratioP2;P2;SDS_P1;SDS_P2;PMS_P1;PMS_P2;Temp;Humidity;BMP_temperature;BMP_pressure;BME280_temperature;BME280_humidity;BME280_pressure;Samples;Min_cycle;Max_cycle;Signal;HPM_P1;HPM_P2
2021/05/19 00:01:26;;;;;;;13.18;10.63;;;;;;;13.93;35.26;100855.31;4985790;28;97904;-71
2021/05/19 00:03:54;;;;;;;13.85;9.32;;;;;;;13.86;35.47;100856.13;4985522;28;99296;-72
2021/05/19 00:06:22;;;;;;;14.40;10.70;;;;;;;13.87;35.40;100863.31;4985925;28;97075;-72
2021/05/19 00:08:49;;;;;;;20.30;11.25;;;;;;;13.84;35.50;100863.25;4985310;28;97307;-72
2021/05/19 00:11:18;;;;;;;17.70;10.60;;;;;;;13.84;35.48;100867.72;4985067;28;98886;-73
2021/05/19 00:13:46;;;;;;;15.88;10.48;;;;;;;13.82;35.59;100859.66;4983439;28;97759;-72
2021/05/19 00:16:14;;;;;;;14.82;10.50;;;;;;;13.83;35.64;100866.81;4984032;28;98160;-72
2021/05/19 00:18:42;;;;;;;18.40;11.45;;;;;;;13.86;35.56;100866.84;4983751;28;97380;-72
2021/05/19 00:21:11;;;;;;;17.13;10.13;;;;;;;13.88;35.56;100862.41;4985442;28;98145;-72
2021/05/19 00:23:39;;;;;;;14.98;9.88;;;;;;;13.88;35.56;100869.53;4983836;28;97764;-72
2021/05/19 00:26:07;;;;;;;16.13;10.30;;;;;;;13.86;35.66;100865.97;4985276;28;98364;-72
2021/05/19 00:28:35;;;;;;;14.52;10.32;;;;;;;13.83;35.81;100861.47;4984632;28;97642;-71
2021/05/19 00:31:05;;;;;;;13.27;10.30;;;;;;;13.81;35.72;100867.69;4983451;28;97948;-71
2021/05/19 00:33:33;;;;;;;13.63;10.48;;;;;;;13.78;36.06;100867.63;4985562;28;97827;-72
2021/05/19 00:36:02;;;;;;;14.85;11.05;;;;;;;13.76;36.09;100862.28;4985770;28;97962;-71
2021/05/19 00:38:29;;;;;;;12.55;9.85;;;;;;;13.77;36.10;100866.72;4984493;28;97439;-71
2021/05/19 00:40:57;;;;;;;13.43;10.20;;;;;;;13.77;36.05;100866.72;4984212;28;97953;-71
2021/05/19 00:43:25;;;;;;;13.25;10.00;;;;;;;13.76;36.07;100861.38;4985350;28;98801;-71
2021/05/19 00:45:53;;;;;;;15.25;10.63;;;;;;;13.75;36.18;100865.81;4985677;28;97341;-72
2021/05/19 00:48:21;;;;;;;16.92;11.88;;;;;;;13.74;36.28;100863.13;4982992;28;97447;-72
2021/05/19 00:50:49;;;;;;;17.17;11.43;;;;;;;13.72;36.24;100862.22;4982038;28;97474;-73
2021/05/19 00:53:17;;;;;;;13.75;11.57;;;;;;;13.73;36.36;100866.69;4983832;28;97989;-72
2021/05/19 00:55:46;;;;;;;16.60;11.00;;;;;;;13.78;36.23;100859.59;4985215;28;97119;-72
2021/05/19 00:58:14;;;;;;;15.38;11.25;;;;;;;13.85;36.30;100853.47;4985169;28;97059;-72
2021/05/19 01:00:44;;;;;;;12.88;10.75;;;;;;;13.87;36.18;100851.69;4984642;28;101488;-72
2021/05/19 01:03:41;;;;;;;16.05;11.00;;;;;;;13.95;36.03;100861.56;4988255;28;100399;-72
2021/05/19 01:06:22;;;;;;;16.13;10.98;;;;;;;13.99;35.98;100860.72;4982788;28;96935;-71
2021/05/19 01:11:37;;;;;;;18.02;11.02;;;;;;;14.02;36.03;100870.56;4985422;28;99936;-72
2021/05/19 01:14:05;;;;;;;17.33;10.63;;;;;;;14.06;35.92;100869.72;4985122;28;98401;-72
2021/05/19 01:16:34;;;;;;;16.25;11.25;;;;;;;14.01;36.00;100872.34;4984912;28;97975;-72
2021/05/19 01:19:02;;;;;;;18.58;11.13;;;;;;;14.01;36.25;100866.97;4984990;28;97500;-72
2021/05/19 01:21:30;;;;;;;14.85;10.98;;;;;;;13.99;36.16;100868.75;4984163;28;97955;-72
2021/05/19 01:23:59;;;;;;;13.57;10.38;;;;;;;13.94;36.26;100874.94;4984749;28;97551;-72
2021/05/19 01:26:27;;;;;;;15.18;11.02;;;;;;;13.91;36.22;100873.16;4983709;28;97279;-72
2021/05/19 01:28:55;;;;;;;12.95;10.15;;;;;;;13.88;36.21;100873.09;4985155;28;96792;-72
2021/05/19 01:31:24;;;;;;;14.02;10.68;;;;;;;13.87;36.34;100874.00;4981831;28;97874;-72
2021/05/19 01:33:52;;;;;;;13.05;10.10;;;;;;;13.87;36.41;100875.78;4984577;28;97458;-72
2021/05/19 01:36:20;;;;;;;12.75;10.02;;;;;;;13.90;36.30;100878.47;5004579;28;97535;-72
2021/05/19 01:38:48;;;;;;;15.40;10.85;;;;;;;13.93;36.24;100879.38;4987021;28;97375;-72
2021/05/19 01:41:17;;;;;;;12.30;9.25;;;;;;;13.87;36.27;100868.66;4986628;28;97255;-72
2021/05/19 01:43:47;;;;;;;11.35;9.68;;;;;;;13.84;36.46;100875.75;5003927;28;97935;-72
2021/05/19 01:46:16;;;;;;;15.43;9.95;;;;;;;13.83;36.48;100877.53;4988296;28;97547;-72
2021/05/19 01:48:43;;;;;;;14.15;9.82;;;;;;;13.79;36.54;100881.03;4989257;28;97152;-72
2021/05/19 01:51:11;;;;;;;11.27;8.82;;;;;;;13.76;36.55;100881.00;4986211;28;97873;-72
2021/05/19 01:53:39;;;;;;;12.73;9.15;;;;;;;13.74;36.50;100882.75;4986940;28;98186;-72
2021/05/19 01:56:07;;;;;;;12.70;10.05;;;;;;;13.66;36.58;100881.75;4971268;28;96827;-72
2021/05/19 01:58:39;;;;;;;12.93;9.68;;;;;;;13.62;36.57;100887.97;4985952;28;97396;-72
2021/05/19 02:01:07;;;;;;;9.70;8.35;;;;;;;13.60;36.60;100888.84;4986393;28;99891;-72
2021/05/19 02:03:37;;;;;;;13.43;9.82;;;;;;;13.64;36.59;100886.19;4983743;28;97724;-72
2021/05/19 02:06:10;;;;;;;10.05;8.73;;;;;;;13.71;36.47;100893.44;5002831;28;96941;-72
2021/05/19 02:08:38;;;;;;;13.10;9.38;;;;;;;13.76;36.26;100886.34;4985139;28;96829;-72
2021/05/19 02:11:09;;;;;;;10.40;7.72;;;;;;;13.76;36.29;100897.03;4985715;28;98953;-72
2021/05/19 02:13:40;;;;;;;9.25;7.75;;;;;;;13.76;36.27;100890.78;4988248;28;97514;-72
2021/05/19 02:16:12;;;;;;;8.45;7.60;;;;;;;13.78;36.21;100894.38;5002150;28;97383;-72
2021/05/19 02:18:44;;;;;;;9.25;7.78;;;;;;;13.77;36.12;100898.81;4985171;28;97815;-72
2021/05/19 02:21:13;;;;;;;8.95;8.00;;;;;;;13.74;36.21;100901.47;4985277;28;97823;-71
2021/05/19 02:23:50;;;;;;;8.32;7.38;;;;;;;13.68;36.31;100903.16;4986345;28;99932;-72
2021/05/19 02:26:17;;;;;;;9.80;8.18;;;;;;;13.60;36.45;100902.22;4985490;28;97501;-72
2021/05/19 02:28:46;;;;;;;9.43;8.20;;;;;;;13.64;36.37;100910.25;4986868;28;96960;-72
2021/05/19 02:31:15;;;;;;;9.57;8.10;;;;;;;13.64;36.39;100904.91;4987462;28;97872;-72
2021/05/19 02:33:43;;;;;;;8.93;8.00;;;;;;;13.57;36.57;100904.88;4986275;28;99161;-72
2021/05/19 02:36:11;;;;;;;9.98;7.80;;;;;;;13.59;36.46;100906.66;4988252;28;96810;-72
2021/05/19 02:38:40;;;;;;;10.77;7.28;;;;;;;13.64;36.33;100907.59;4986325;28;97820;-72
2021/05/19 02:41:08;;;;;;;9.27;8.20;;;;;;;13.69;36.35;100902.31;4985800;28;97945;-72
2021/05/19 02:43:37;;;;;;;8.50;7.53;;;;;;;13.71;36.18;100906.81;4986563;28;97038;-73
2021/05/19 02:46:06;;;;;;;7.85;7.07;;;;;;;13.68;36.30;100908.53;4984992;28;96891;-72
2021/05/19 02:48:34;;;;;;;9.45;7.20;;;;;;;13.65;36.25;100917.44;4986908;28;97390;-72
2021/05/19 02:51:02;;;;;;;7.93;7.20;;;;;;;13.65;36.26;100912.06;4984743;28;98479;-71
2021/05/19 02:53:30;;;;;;;8.40;7.57;;;;;;;13.63;36.28;100916.50;4987862;28;98494;-72
2021/05/19 02:55:58;;;;;;;8.35;7.28;;;;;;;13.62;36.23;100912.03;4987470;28;96801;-71
2021/05/19 02:58:26;;;;;;;10.20;8.23;;;;;;;13.53;36.46;100917.28;4989662;28;97100;-72
2021/05/19 03:00:54;;;;;;;9.10;8.18;;;;;;;13.52;36.40;100917.25;4986100;28;98040;-71
2021/05/19 03:03:23;;;;;;;8.98;7.57;;;;;;;13.53;36.48;100919.94;4986408;28;97722;-71
2021/05/19 03:05:51;;;;;;;8.85;8.00;;;;;;;13.54;36.44;100915.50;4986632;28;97841;-72
2021/05/19 03:08:19;;;;;;;9.77;7.53;;;;;;;13.49;36.49;100920.81;4986316;28;96803;-73
2021/05/19 03:10:47;;;;;;;8.93;7.18;;;;;;;13.48;36.41;100929.69;4983778;28;99594;-72
2021/05/19 03:13:15;;;;;;;9.73;8.43;;;;;;;13.47;36.46;100930.59;4986339;28;97985;-71
2021/05/19 03:15:43;;;;;;;11.20;8.18;;;;;;;13.47;36.48;100927.00;4987847;28;96925;-72
2021/05/19 03:18:11;;;;;;;9.00;8.10;;;;;;;13.49;36.34;100928.84;4985695;28;97433;-71
2021/05/19 03:20:40;;;;;;;9.00;8.02;;;;;;;13.44;36.46;100930.53;4983980;28;101628;-72
2021/05/19 03:23:08;;;;;;;9.30;7.53;;;;;;;13.37;36.49;100927.81;4986573;28;100453;-72
2021/05/19 03:25:35;;;;;;;10.27;7.80;;;;;;;13.34;36.54;100939.34;4986584;28;96876;-72
2021/05/19 03:28:03;;;;;;;9.32;7.57;;;;;;;13.29;36.55;100932.13;4987313;28;97695;-72
2021/05/19 03:30:31;;;;;;;7.10;6.47;;;;;;;13.24;36.63;100941.88;4985857;28;98635;-73
2021/05/19 03:32:59;;;;;;;8.43;7.63;;;;;;;13.14;36.78;100939.09;4985441;28;98938;-72
2021/05/19 03:35:27;;;;;;;7.40;6.70;;;;;;;13.11;36.76;100940.84;4984835;28;99090;-72
2021/05/19 03:37:55;;;;;;;10.07;8.00;;;;;;;13.10;36.79;100929.25;4986289;28;96789;-72
2021/05/19 03:40:24;;;;;;;9.00;8.02;;;;;;;13.10;36.87;100942.59;4985428;28;97383;-73
2021/05/19 03:42:52;;;;;;;9.20;7.47;;;;;;;13.11;36.72;100939.03;4984730;28;99498;-72
2021/05/19 03:45:21;;;;;;;7.75;6.95;;;;;;;13.07;36.75;100939.00;4986835;28;96916;-72
2021/05/19 03:47:51;;;;;;;9.50;8.00;;;;;;;13.04;36.75;100946.94;4985368;28;97528;-72
2021/05/19 03:50:19;;;;;;;8.55;7.50;;;;;;;13.05;37.02;100947.00;4986365;28;97650;-73
2021/05/19 03:52:47;;;;;;;10.35;8.07;;;;;;;13.06;36.67;100951.44;4984811;28;99081;-72
2021/05/19 03:55:16;;;;;;;8.70;7.90;;;;;;;13.08;36.62;100944.34;4985845;28;96967;-73
2021/05/19 03:57:44;;;;;;;9.00;8.10;;;;;;;13.09;36.68;100947.94;4984603;28;97208;-73
2021/05/19 04:00:15;;;;;;;9.27;7.88;;;;;;;13.10;36.67;100955.03;4984355;28;98983;-72
2021/05/19 04:02:48;;;;;;;7.40;6.70;;;;;;;13.09;36.59;100963.97;4983880;28;97681;-72
2021/05/19 04:05:17;;;;;;;9.45;8.40;;;;;;;13.00;36.70;100970.03;4985423;28;97117;-72
2021/05/19 04:07:45;;;;;;;9.23;7.43;;;;;;;12.92;36.83;100970.78;4985185;28;96815;-72
2021/05/19 04:10:13;;;;;;;10.52;8.77;;;;;;;12.87;36.80;100981.41;4985545;28;97920;-71
2021/05/19 04:12:41;;;;;;;11.63;8.18;;;;;;;12.82;37.03;100976.88;4986866;28;97920;-71
2021/05/19 04:15:11;;;;;;;10.82;8.75;;;;;;;12.76;37.23;100990.13;4987530;28;97589;-72
2021/05/19 04:17:38;;;;;;;11.55;8.88;;;;;;;12.73;37.11;100984.75;4987779;28;97710;-72
2021/05/19 04:20:07;;;;;;;9.30;8.38;;;;;;;12.79;36.84;100992.84;4984656;28;97709;-72
2021/05/19 04:22:35;;;;;;;10.35;8.55;;;;;;;12.78;37.11;100977.72;4987579;28;97495;-72
2021/05/19 04:25:04;;;;;;;12.70;9.13;;;;;;;12.78;37.02;100985.72;4986722;28;97001;-72
2021/05/19 04:27:32;;;;;;;10.50;8.85;;;;;;;12.81;37.00;100991.09;4986609;28;97496;-72
2021/05/19 04:30:00;;;;;;;12.98;10.30;;;;;;;12.83;36.89;100990.25;4985130;28;97008;-72
2021/05/19 04:32:29;;;;;;;14.50;9.90;;;;;;;12.84;36.89;100989.38;4985070;28;98001;-73
2021/05/19 04:34:57;;;;;;;15.13;9.40;;;;;;;12.85;36.87;100988.50;4984417;28;97399;-72
2021/05/19 04:37:25;;;;;;;15.23;10.77;;;;;;;12.90;36.74;100993.91;4984949;28;96986;-72
2021/05/19 04:39:53;;;;;;;13.13;11.15;;;;;;;;;;4985388;28;99189;-72
2021/05/19 04:42:20;;;;;;;12.50;10.13;;;;;;;12.96;36.67;100997.59;4986042;28;101810;-72
2021/05/19 04:44:49;;;;;;;16.45;10.30;;;;;;;12.97;36.61;100996.69;4985764;28;97217;-71
2021/05/19 04:47:17;;;;;;;12.00;10.25;;;;;;;12.98;36.59;101010.97;4985196;28;97102;-72
2021/05/19 04:49:45;;;;;;;13.35;9.50;;;;;;;12.94;36.71;101002.00;4984721;28;97877;-73
2021/05/19 04:52:13;;;;;;;10.18;8.82;;;;;;;12.88;36.65;101001.00;4982659;28;98979;-71
2021/05/19 04:54:41;;;;;;;87.07;41.08;;;;;;;12.84;36.85;100996.47;4982985;28;97747;-71
2021/05/19 04:57:09;;;;;;;17.42;12.48;;;;;;;12.80;36.92;100986.66;4980384;28;97401;-71
2021/05/19 04:59:37;;;;;;;13.60;10.95;;;;;;;12.78;36.79;100993.72;4983133;28;97985;-72
2021/05/19 05:02:06;;;;;;;12.60;10.48;;;;;;;12.76;36.87;101001.72;4983916;28;97049;-72
2021/05/19 05:04:34;;;;;;;13.88;10.48;;;;;;;12.74;37.03;100999.88;4983879;28;98513;-71
2021/05/19 05:07:02;;;;;;;11.85;9.55;;;;;;;12.77;36.90;100999.94;4985305;28;97106;-71
2021/05/19 05:09:30;;;;;;;14.35;11.18;;;;;;;12.80;37.02;101000.88;4983617;28;97853;-71
2021/05/19 05:11:58;;;;;;;14.85;10.77;;;;;;;12.90;36.69;101004.59;4986754;28;97765;-72
2021/05/19 05:14:25;;;;;;;15.68;12.23;;;;;;;12.96;36.66;101004.69;4987887;28;96751;-72
2021/05/19 05:16:53;;;;;;;14.75;11.45;;;;;;;13.01;36.58;101000.34;4970892;28;96864;-71
2021/05/19 05:19:21;;;;;;;15.02;10.93;;;;;;;13.03;36.49;100991.47;4986325;28;98361;-71
2021/05/19 05:21:50;;;;;;;14.73;10.65;;;;;;;12.99;36.63;101007.41;4986421;28;96921;-71
2021/05/19 05:24:22;;;;;;;13.43;10.70;;;;;;;12.97;36.54;101007.38;4986664;28;96949;-72
2021/05/19 05:26:50;;;;;;;13.57;10.18;;;;;;;12.96;36.52;101008.28;4988652;28;97405;-71
2021/05/19 05:29:18;;;;;;;13.80;11.43;;;;;;;12.95;36.64;101013.56;4987224;28;98971;-71
2021/05/19 05:31:46;;;;;;;15.85;11.35;;;;;;;12.98;36.72;101013.63;4987372;28;97764;-71
2021/05/19 05:34:13;;;;;;;18.60;12.90;;;;;;;13.01;36.49;101019.94;4988270;28;96823;-72
2021/05/19 05:36:41;;;;;;;16.85;12.52;;;;;;;13.02;36.45;101018.19;4988224;28;97047;-72
2021/05/19 05:39:10;;;;;;;16.05;11.88;;;;;;;13.04;36.33;101019.06;4986506;28;97828;-72
2021/05/19 05:41:38;;;;;;;14.15;10.85;;;;;;;13.08;36.41;101016.50;4987825;28;101883;-71
2021/05/19 05:44:06;;;;;;;15.00;10.60;;;;;;;13.10;36.41;101024.53;4987760;28;97519;-71
2021/05/19 05:46:33;;;;;;;16.83;11.65;;;;;;;13.07;36.51;101017.38;4987051;28;97732;-72
2021/05/19 05:49:01;;;;;;;14.55;10.77;;;;;;;13.09;36.31;101017.41;4985908;28;99006;-72
2021/05/19 05:51:30;;;;;;;13.63;11.43;;;;;;;13.09;36.45;101025.41;4985877;28;97856;-71
2021/05/19 05:53:57;;;;;;;15.02;11.73;;;;;;;13.12;36.42;101028.13;4985680;28;98171;-72
2021/05/19 05:56:26;;;;;;;15.85;11.10;;;;;;;13.15;36.31;101029.06;4986890;28;96858;-71
2021/05/19 05:58:54;;;;;;;16.15;13.05;;;;;;;13.14;36.27;101034.38;4984958;28;99767;-72
2021/05/19 06:01:22;;;;;;;35.03;21.52;;;;;;;13.11;36.36;101034.34;4986232;28;100375;-71
2021/05/19 06:03:50;;;;;;;14.07;12.07;;;;;;;13.07;36.35;101033.41;4984591;28;96792;-71
2021/05/19 06:06:18;;;;;;;14.30;11.02;;;;;;;13.07;36.38;101043.19;4984341;28;97376;-72
2021/05/19 06:08:45;;;;;;;14.55;10.80;;;;;;;13.05;36.37;101040.50;4984291;28;97961;-71
2021/05/19 06:11:13;;;;;;;14.02;10.82;;;;;;;13.05;36.37;101036.91;4984589;28;98675;-72
2021/05/19 06:13:42;;;;;;;16.45;12.10;;;;;;;13.05;36.44;101043.16;4985817;28;97270;-71
2021/05/19 06:16:10;;;;;;;15.85;12.02;;;;;;;13.11;36.32;101047.72;4984665;28;97010;-72
2021/05/19 06:18:38;;;;;;;13.88;11.15;;;;;;;13.14;36.32;101045.06;4983651;28;97785;-73
2021/05/19 06:21:06;;;;;;;14.88;12.13;;;;;;;13.18;36.22;101049.59;4985692;28;97743;-74
2021/05/19 06:23:35;;;;;;;32.20;20.30;;;;;;;13.23;36.22;101053.22;4986196;28;97216;-72
2021/05/19 06:26:03;;;;;;;20.75;14.00;;;;;;;13.25;36.26;101063.94;4986369;28;97139;-71
2021/05/19 06:28:31;;;;;;;17.27;12.90;;;;;;;13.35;36.00;101066.75;4987312;28;97885;-72
2021/05/19 06:30:59;;;;;;;14.65;11.85;;;;;;;13.41;35.92;101064.16;4987354;28;99208;-73
2021/05/19 06:33:28;;;;;;;16.05;11.93;;;;;;;13.44;35.84;101066.88;4987481;28;97348;-71
2021/05/19 06:35:56;;;;;;;17.27;12.23;;;;;;;13.49;35.83;101072.31;4987719;28;97912;-73
2021/05/19 06:38:24;;;;;;;20.00;13.02;;;;;;;13.58;35.61;101067.97;4986135;28;98699;-72
2021/05/19 06:40:52;;;;;;;23.20;14.43;;;;;;;13.62;35.60;101067.13;4988875;28;98856;-72
2021/05/19 06:43:21;;;;;;;16.35;12.00;;;;;;;13.65;35.47;101069.84;4988953;28;97297;-71
2021/05/19 06:45:49;;;;;;;14.48;12.43;;;;;;;13.65;35.47;101068.94;4987563;28;96858;-72
2021/05/19 06:48:17;;;;;;;19.65;13.48;;;;;;;13.66;35.45;101074.31;4989529;28;97849;-73
2021/05/19 06:50:46;;;;;;;16.58;12.23;;;;;;;13.72;35.28;101074.41;4985579;28;98145;-72
2021/05/19 06:53:14;;;;;;;19.33;13.07;;;;;;;13.79;35.26;101070.97;4982122;28;98204;-72
2021/05/19 06:55:47;;;;;;;17.00;12.18;;;;;;;13.83;35.17;101074.56;4965705;28;97040;-73
2021/05/19 06:58:16;;;;;;;16.20;12.40;;;;;;;13.84;35.33;101071.91;4988800;28;96904;-72
2021/05/19 07:00:44;;;;;;;14.43;11.88;;;;;;;13.93;35.18;101079.16;4986795;28;97730;-72
2021/05/19 07:03:12;;;;;;;15.35;11.30;;;;;;;13.93;34.87;101079.16;4989029;28;97419;-72
2021/05/19 07:05:40;;;;;;;16.63;10.55;;;;;;;13.94;35.04;101078.28;4971127;28;96928;-73
2021/05/19 07:08:14;;;;;;;15.35;11.27;;;;;;;13.96;34.88;101071.16;5003320;28;97176;-73
2021/05/19 07:10:42;;;;;;;12.95;10.70;;;;;;;13.95;34.79;101077.41;4987326;28;97909;-73
2021/05/19 07:13:10;;;;;;;13.18;10.90;;;;;;;13.97;34.98;101084.56;4990413;28;97322;-73
2021/05/19 07:15:39;;;;;;;14.60;10.70;;;;;;;14.00;35.03;101079.25;4987854;28;97424;-71
2021/05/19 07:18:08;;;;;;;15.57;11.30;;;;;;;14.01;34.97;101075.69;5003205;28;99997;-72
2021/05/19 07:20:44;;;;;;;17.08;11.68;;;;;;;14.04;34.82;101081.06;4988799;28;98510;-72
2021/05/19 07:23:13;;;;;;;14.02;11.55;;;;;;;14.04;34.80;101078.41;4986684;28;98938;-72
2021/05/19 07:25:41;;;;;;;12.80;10.13;;;;;;;14.12;34.71;101079.41;4988769;28;97892;-73
2021/05/19 07:28:09;;;;;;;15.07;11.63;;;;;;;14.23;34.32;101078.59;4986919;28;99305;-73
2021/05/19 07:30:38;;;;;;;14.75;10.40;;;;;;;14.27;34.43;101083.09;4986044;28;98986;-73
2021/05/19 07:33:06;;;;;;;14.40;11.15;;;;;;;14.29;34.56;101084.03;4985950;28;97286;-73
2021/05/19 07:35:34;;;;;;;13.63;10.38;;;;;;;14.30;34.47;101091.19;4986710;28;97256;-73
2021/05/19 07:38:03;;;;;;;13.68;11.38;;;;;;;14.31;34.45;101080.50;4986774;28;97810;-72
2021/05/19 07:40:30;;;;;;;15.02;11.82;;;;;;;14.35;34.51;101082.34;4984230;28;98060;-72
2021/05/19 07:42:58;;;;;;;15.68;11.10;;;;;;;14.36;34.34;101088.56;4986773;28;97250;-72
2021/05/19 07:45:26;;;;;;;14.70;10.93;;;;;;;14.31;34.46;101079.59;4984885;28;97443;-72
2021/05/19 07:47:53;;;;;;;13.13;10.40;;;;;;;14.31;34.37;101079.59;4987592;28;97193;-72
2021/05/19 07:50:19;;;;;;;16.35;11.00;;;;;;;14.38;34.24;101086.81;4983833;28;96841;-72
2021/05/19 07:52:46;;;;;;;14.48;10.63;;;;;;;14.42;34.38;101080.59;4985331;28;97203;-72
2021/05/19 07:55:21;;;;;;;15.05;11.65;;;;;;;14.49;34.31;101082.44;4980136;28;97939;-72
2021/05/19 07:57:50;;;;;;;13.32;10.80;;;;;;;14.46;34.16;101077.06;4985882;28;96985;-73
2021/05/19 08:00:22;;;;;;;16.63;11.60;;;;;;;14.46;34.31;101082.44;4982316;28;97972;-72
2021/05/19 08:02:49;;;;;;;11.98;10.23;;;;;;;14.49;34.24;101085.13;4983031;28;97901;-72
2021/05/19 08:05:15;;;;;;;12.02;10.27;;;;;;;14.49;34.25;101071.75;4985271;28;97841;-72
2021/05/19 08:07:42;;;;;;;13.18;10.00;;;;;;;14.54;34.12;101081.63;4967166;28;99697;-72
2021/05/19 08:10:09;;;;;;;13.32;11.43;;;;;;;14.58;33.94;101077.22;4983024;28;97760;-73
2021/05/19 08:12:37;;;;;;;15.27;10.82;;;;;;;14.57;34.20;101072.75;4985983;28;96874;-73
2021/05/19 08:15:04;;;;;;;13.05;11.20;;;;;;;14.56;34.14;101077.22;4984098;28;98136;-72
2021/05/19 08:17:31;;;;;;;15.98;9.75;;;;;;;14.58;34.18;101071.88;4984487;28;97801;-72
2021/05/19 08:19:59;;;;;;;12.43;9.48;;;;;;;14.53;34.13;101079.84;4984243;28;98218;-72
2021/05/19 08:22:27;;;;;;;13.52;9.98;;;;;;;14.45;34.24;101085.97;4986681;28;97614;-72
2021/05/19 08:24:55;;;;;;;14.95;10.13;;;;;;;14.33;34.16;101089.44;4983884;28;96978;-72
2021/05/19 08:27:24;;;;;;;13.65;10.23;;;;;;;14.16;34.36;101083.00;4981623;28;97842;-73
2021/05/19 08:29:53;;;;;;;17.08;11.15;;;;;;;14.01;34.69;101101.53;4983465;28;96963;-73
2021/05/19 08:32:25;;;;;;;13.60;10.77;;;;;;;13.85;34.72;101089.78;4985358;28;96817;-73
2021/05/19 08:34:53;;;;;;;14.32;11.15;;;;;;;13.74;34.88;101102.06;4984986;28;98196;-73
2021/05/19 08:37:21;;;;;;;15.43;11.57;;;;;;;13.65;35.01;101091.25;4984398;28;97463;-72
2021/05/19 08:39:48;;;;;;;16.65;12.43;;;;;;;13.61;35.22;101093.84;4985027;28;98998;-72
2021/05/19 08:42:16;;;;;;;17.60;13.70;;;;;;;13.65;35.27;101088.56;4983562;28;96853;-72
2021/05/19 08:44:45;;;;;;;42.17;25.58;;;;;;;13.71;35.16;101095.78;4984153;28;97802;-73
2021/05/19 08:47:13;;;;;;;18.33;12.13;;;;;;;13.76;35.05;101107.44;4984473;28;98252;-72
2021/05/19 08:49:45;;;;;;;30.42;21.63;;;;;;;13.80;35.10;101107.56;4985890;28;98057;-73
2021/05/19 08:52:13;;;;;;;65.75;38.78;;;;;;;13.82;35.04;101105.75;4999834;28;98719;-72
2021/05/19 08:54:40;;;;;;;22.08;15.88;;;;;;;13.83;35.07;101101.31;4986118;28;97138;-73
2021/05/19 08:57:08;;;;;;;37.85;21.23;;;;;;;13.86;34.91;101098.69;4984077;28;98202;-73
2021/05/19 08:59:37;;;;;;;44.28;26.27;;;;;;;13.90;35.01;101104.09;4985189;28;97866;-72
2021/05/19 09:02:12;;;;;;;129.35;69.38;;;;;;;13.93;34.91;101101.44;4987228;28;97981;-72
2021/05/19 09:04:41;;;;;;;24.67;15.77;;;;;;;14.00;34.87;101097.09;4986651;28;96974;-73
2021/05/19 09:07:17;;;;;;;10.13;8.63;;;;;;;14.07;34.96;101099.84;4984507;28;97018;-72
2021/05/19 09:09:45;;;;;;;8.55;7.72;;;;;;;14.12;34.54;101084.75;4983093;28;98245;-72
2021/05/19 09:12:15;;;;;;;10.48;8.88;;;;;;;14.20;34.54;101095.53;4986917;28;96962;-72
2021/05/19 09:14:45;;;;;;;11.05;9.40;;;;;;;14.25;34.10;101101.84;4987901;28;97011;-71
2021/05/19 09:17:22;;;;;;;10.30;8.60;;;;;;;14.35;34.57;101102.84;4984666;28;100539;-72
2021/05/19 09:19:58;;;;;;;12.85;8.55;;;;;;;14.42;34.37;101105.59;4984339;28;98240;-71
2021/05/19 09:22:29;;;;;;;10.65;9.55;;;;;;;14.50;34.23;101103.88;4987621;28;97237;-72
2021/05/19 09:24:57;;;;;;;9.13;7.57;;;;;;;14.54;34.22;101108.41;4988151;28;97776;-71
2021/05/19 09:27:38;;;;;;;13.73;8.27;;;;;;;14.63;34.52;101103.16;4988535;28;98507;-71
2021/05/19 09:30:07;;;;;;;27.65;18.10;;;;;;;14.70;33.97;101109.50;4983611;28;96816;-71
2021/05/19 09:32:37;;;;;;;22.08;13.85;;;;;;;14.73;34.16;101106.84;4986064;28;97518;-72
2021/05/19 09:35:07;;;;;;;12.20;10.15;;;;;;;14.78;33.97;101107.75;4985128;28;97744;-71
2021/05/19 09:37:36;;;;;;;9.65;8.40;;;;;;;14.83;34.06;101106.94;4988413;28;98055;-72
2021/05/19 09:40:06;;;;;;;9.43;7.40;;;;;;;14.87;33.88;101106.06;4987622;28;102337;-72
2021/05/19 09:42:47;;;;;;;10.02;7.85;;;;;;;14.92;34.20;101101.66;4986439;28;96790;-72
2021/05/19 09:45:21;;;;;;;8.30;7.35;;;;;;;14.96;33.80;101095.44;4983413;28;98441;-72
2021/05/19 09:47:50;;;;;;;9.15;8.02;;;;;;;15.04;33.66;101087.47;4986476;28;97922;-71
2021/05/19 09:50:21;;;;;;;19.10;13.15;;;;;;;15.11;33.61;101084.84;4983900;28;98190;-72
2021/05/19 09:53:02;;;;;;;16.02;11.10;;;;;;;15.10;33.70;101083.03;4977808;28;97713;-72
2021/05/19 09:55:30;;;;;;;11.35;9.13;;;;;;;15.17;33.60;101078.63;4986811;28;97574;-73
2021/05/19 09:57:57;;;;;;;12.43;9.40;;;;;;;15.24;33.51;101085.81;4989099;28;98860;-74
2021/05/19 10:00:27;;;;;;;12.65;9.75;;;;;;;15.24;33.64;101080.47;4987863;28;96983;-73
2021/05/19 10:02:55;;;;;;;13.27;9.05;;;;;;;15.16;33.45;101076.81;4990419;28;96750;-75
2021/05/19 10:05:26;;;;;;;13.55;10.27;;;;;;;15.19;33.45;101082.22;4989521;28;97147;-73
2021/05/19 10:07:55;;;;;;;17.13;11.90;;;;;;;15.22;33.41;101086.69;4987848;28;98240;-73
2021/05/19 10:10:24;;;;;;;14.18;10.30;;;;;;;15.28;33.46;101082.28;4990193;28;99690;-74
2021/05/19 10:12:53;;;;;;;12.45;9.48;;;;;;;15.38;33.27;101070.75;4991750;28;97106;-73
2021/05/19 10:15:23;;;;;;;10.95;9.25;;;;;;;15.50;33.08;101073.47;4992525;28;97339;-73
2021/05/19 10:17:54;;;;;;;10.70;8.88;;;;;;;15.58;33.15;101068.16;4975819;28;100770;-73
2021/05/19 10:20:24;;;;;;;9.75;8.75;;;;;;;15.64;33.02;101061.06;4991076;28;100107;-74
2021/05/19 10:22:52;;;;;;;10.25;9.15;;;;;;;15.69;32.88;101055.69;4992836;28;96892;-74
2021/05/19 10:25:34;;;;;;;12.82;8.23;;;;;;;15.80;32.50;101048.59;4994737;28;97275;-74
2021/05/19 10:28:05;;;;;;;10.63;9.05;;;;;;;15.87;32.80;101048.63;4995065;28;97962;-73
2021/05/19 10:30:35;;;;;;;14.05;9.77;;;;;;;15.94;32.50;101050.44;4990362;28;97757;-73
2021/05/19 10:33:04;;;;;;;10.25;8.73;;;;;;;15.95;32.24;101049.56;4990554;28;97757;-72
2021/05/19 10:35:33;;;;;;;9.02;8.10;;;;;;;15.99;32.50;101043.31;4985575;28;98033;-73
2021/05/19 10:38:24;;;;;;;9.38;7.70;;;;;;;16.09;31.96;101045.16;4986306;28;97227;-73
2021/05/19 10:40:53;;;;;;;24.38;17.85;;;;;;;16.10;32.06;101046.94;4984685;28;99302;-73
2021/05/19 10:43:21;;;;;;;20.75;14.35;;;;;;;16.13;31.91;101040.69;4985294;28;97532;-73
2021/05/19 10:45:52;;;;;;;12.85;11.55;;;;;;;16.04;31.57;101037.97;4987432;28;97586;-73
2021/05/19 10:48:28;;;;;;;8.20;7.35;;;;;;;16.18;31.48;101043.41;4988530;28;97802;-74
2021/05/19 10:51:01;;;;;;;6.80;6.13;;;;;;;16.12;31.55;101048.75;4986561;28;98018;-73
2021/05/19 10:59:17;;;;;;;9.05;7.97;;;;;;;15.82;31.00;101054.88;4924931;28;98324;-74
2021/05/19 11:01:56;;;;;;;9.17;8.27;;;;;;;15.84;30.98;101048.63;4960588;28;99163;-74
2021/05/19 11:04:26;;;;;;;10.07;6.43;;;;;;;15.94;31.10;101050.44;4987314;28;96799;-74
2021/05/19 11:07:08;;;;;;;7.72;6.82;;;;;;;15.97;31.63;101053.16;4989239;28;97230;-74
2021/05/19 11:09:41;;;;;;;5.93;5.32;;;;;;;16.04;31.32;101055.00;4971844;28;100345;-74
2021/05/19 11:15:43;;;;;;;10.30;8.63;;;;;;;16.21;31.19;101054.13;4987839;28;97422;-75
2021/05/19 11:18:20;;;;;;;21.77;17.33;;;;;;;16.21;31.08;101051.44;4988054;28;97301;-74
2021/05/19 11:20:48;;;;;;;13.75;12.00;;;;;;;16.31;30.88;101039.81;4987888;28;97230;-74
2021/05/19 11:23:18;;;;;;;11.75;10.38;;;;;;;16.43;31.13;101045.22;4985903;28;99227;-74
2021/05/19 11:25:46;;;;;;;10.30;9.30;;;;;;;16.52;30.85;101040.78;4988089;28;96949;-74
2021/05/19 11:28:15;;;;;;;8.18;7.38;;;;;;;16.72;30.60;101035.44;4990816;28;97391;-74
2021/05/19 11:30:42;;;;;;;14.65;11.57;;;;;;;16.82;30.40;101045.28;4985869;28;99046;-71
2021/05/19 11:33:17;;;;;;;27.23;20.33;;;;;;;16.75;30.79;101047.06;4983721;28;99098;-72
2021/05/19 11:35:47;;;;;;;9.73;8.73;;;;;;;16.81;30.39;101040.81;4985005;28;97142;-73